JBU8616 KBOS-CYMX
Flight info
| Callsign | JBU8616 |
|---|---|
| Flight time | 0h 50m |
| Altitude | 34000 |
| Route | HYLND DCT PBERG DCT LATTS DCT EBDOT DCT DUNUP |
| Aircraft | A320/M-SDE3FGHIRWY/LB1 |
Departure
| Time | 2026-05-07 15:29 |
|---|---|
| Airport | Boston Logan International Airport (KBOS) |
Arrival
| Time | 2026-05-07 16:19 |
|---|---|
| Airport | Montreal Mirabel International Airport (CYMX) |
| Time | Latitude | Longitude | Altitude | Speed | Heading |
|---|---|---|---|---|---|
| 2026-05-07 14:56 | 42.36771 | -71.01679 | 26 ft | 0 kts | 210° |
| 2026-05-07 15:18 | 42.36783 | -71.01670 | 30 ft | 4 kts | 201° |
| 2026-05-07 15:18 | 42.36809 | -71.01659 | 26 ft | 4 kts | 205° |
| 2026-05-07 15:19 | 42.36823 | -71.01643 | 29 ft | 1 kts | 258° |
| 2026-05-07 15:21 | 42.36824 | -71.01668 | 30 ft | 5 kts | 285° |
| 2026-05-07 15:21 | 42.36861 | -71.01682 | 28 ft | 7 kts | 7° |
| 2026-05-07 15:21 | 42.36916 | -71.01648 | 26 ft | 10 kts | 33° |
| 2026-05-07 15:22 | 42.36981 | -71.01585 | 29 ft | 12 kts | 47° |
| 2026-05-07 15:22 | 42.36954 | -71.01489 | 29 ft | 13 kts | 134° |
| 2026-05-07 15:22 | 42.36886 | -71.01399 | 26 ft | 15 kts | 135° |
| 2026-05-07 15:22 | 42.36807 | -71.01293 | 29 ft | 17 kts | 136° |
| 2026-05-07 15:23 | 42.36715 | -71.01244 | 27 ft | 12 kts | 189° |
| 2026-05-07 15:23 | 42.36629 | -71.01275 | 29 ft | 12 kts | 195° |
| 2026-05-07 15:23 | 42.36586 | -71.01284 | 29 ft | 5 kts | 195° |
| 2026-05-07 15:23 | 42.36540 | -71.01317 | 27 ft | 9 kts | 211° |
| 2026-05-07 15:24 | 42.36476 | -71.01368 | 28 ft | 12 kts | 210° |
| 2026-05-07 15:24 | 42.36413 | -71.01406 | 28 ft | 7 kts | 193° |
| 2026-05-07 15:24 | 42.36364 | -71.01376 | 26 ft | 9 kts | 128° |
| 2026-05-07 15:24 | 42.36324 | -71.01292 | 30 ft | 12 kts | 122° |
| 2026-05-07 15:25 | 42.36273 | -71.01179 | 29 ft | 16 kts | 120° |
| 2026-05-07 15:25 | 42.36223 | -71.01036 | 28 ft | 18 kts | 114° |
| 2026-05-07 15:25 | 42.36168 | -71.00869 | 25 ft | 21 kts | 114° |
| 2026-05-07 15:25 | 42.36108 | -71.00680 | 26 ft | 23 kts | 109° |
| 2026-05-07 15:26 | 42.36055 | -71.00461 | 29 ft | 26 kts | 109° |
| 2026-05-07 15:26 | 42.35994 | -71.00220 | 27 ft | 28 kts | 109° |
| 2026-05-07 15:26 | 42.35950 | -71.00012 | 25 ft | 20 kts | 88° |
| 2026-05-07 15:26 | 42.35979 | -70.99819 | 29 ft | 22 kts | 77° |
| 2026-05-07 15:27 | 42.36018 | -70.99603 | 25 ft | 25 kts | 76° |
| 2026-05-07 15:27 | 42.36061 | -70.99362 | 29 ft | 28 kts | 76° |
| 2026-05-07 15:27 | 42.36109 | -70.99098 | 28 ft | 28 kts | 77° |
| 2026-05-07 15:27 | 42.36139 | -70.98907 | 29 ft | 14 kts | 86° |
| 2026-05-07 15:28 | 42.36088 | -70.98837 | 29 ft | 12 kts | 167° |
| 2026-05-07 15:28 | 42.36022 | -70.98825 | 28 ft | 6 kts | 207° |
| 2026-05-07 15:28 | 42.36004 | -70.98880 | 28 ft | 6 kts | 257° |
| 2026-05-07 15:28 | 42.35960 | -70.99131 | 27 ft | 64 kts | 256° |
| 2026-05-07 15:29 | 42.35803 | -71.00013 | 29 ft | 126 kts | 256° |
| 2026-05-07 15:29 | 42.35565 | -71.01337 | 305 ft | 151 kts | 256° |
| 2026-05-07 15:29 | 42.35230 | -71.02681 | 1067 ft | 151 kts | 248° |
| 2026-05-07 15:29 | 42.34604 | -71.03834 | 1688 ft | 159 kts | 227° |
| 2026-05-07 15:30 | 42.33729 | -71.04878 | 2138 ft | 176 kts | 225° |
| 2026-05-07 15:30 | 42.32757 | -71.06011 | 2586 ft | 195 kts | 225° |
| 2026-05-07 15:30 | 42.31683 | -71.07314 | 2971 ft | 221 kts | 226° |
| 2026-05-07 15:30 | 42.30496 | -71.08821 | 3453 ft | 247 kts | 227° |
| 2026-05-07 15:31 | 42.29212 | -71.10518 | 4045 ft | 269 kts | 228° |
| 2026-05-07 15:31 | 42.27857 | -71.12369 | 4722 ft | 285 kts | 229° |
| 2026-05-07 15:31 | 42.26453 | -71.14348 | 5464 ft | 297 kts | 231° |
| 2026-05-07 15:31 | 42.25442 | -71.16652 | 6742 ft | 278 kts | 258° |
| 2026-05-07 15:32 | 42.25515 | -71.19142 | 8146 ft | 263 kts | 288° |
| 2026-05-07 15:32 | 42.26573 | -71.21134 | 9378 ft | 270 kts | 315° |
| 2026-05-07 15:32 | 42.28357 | -71.22133 | 10354 ft | 290 kts | 341° |
| 2026-05-07 15:32 | 42.30408 | -71.22513 | 10922 ft | 308 kts | 343° |
| 2026-05-07 15:33 | 42.32587 | -71.23018 | 11199 ft | 325 kts | 336° |
| 2026-05-07 15:33 | 42.34771 | -71.23913 | 11773 ft | 330 kts | 331° |
| 2026-05-07 15:33 | 42.36948 | -71.24972 | 12471 ft | 336 kts | 330° |
| 2026-05-07 15:33 | 42.39280 | -71.25742 | 13172 ft | 356 kts | 342° |
| 2026-05-07 15:34 | 42.41777 | -71.26049 | 13875 ft | 365 kts | 345° |
| 2026-05-07 15:34 | 42.44340 | -71.26229 | 14538 ft | 372 kts | 347° |
| 2026-05-07 15:34 | 42.46952 | -71.26330 | 15189 ft | 377 kts | 348° |
| 2026-05-07 15:34 | 42.49592 | -71.26401 | 15857 ft | 382 kts | 349° |
| 2026-05-07 15:35 | 42.52267 | -71.26469 | 16500 ft | 386 kts | 349° |
| 2026-05-07 15:35 | 42.54968 | -71.26551 | 17148 ft | 390 kts | 349° |
| 2026-05-07 15:35 | 42.57698 | -71.26649 | 17820 ft | 394 kts | 348° |
| 2026-05-07 15:35 | 42.60452 | -71.26763 | 18439 ft | 398 kts | 348° |
| 2026-05-07 15:36 | 42.63227 | -71.26888 | 19036 ft | 401 kts | 348° |
| 2026-05-07 15:36 | 42.66030 | -71.27018 | 19673 ft | 404 kts | 347° |
| 2026-05-07 15:36 | 42.68856 | -71.27145 | 20364 ft | 407 kts | 347° |
| 2026-05-07 15:36 | 42.71697 | -71.27266 | 20998 ft | 410 kts | 347° |
| 2026-05-07 15:37 | 42.74542 | -71.27478 | 21604 ft | 405 kts | 340° |
| 2026-05-07 15:37 | 42.77237 | -71.28297 | 22195 ft | 391 kts | 329° |
| 2026-05-07 15:37 | 42.79685 | -71.29745 | 22814 ft | 377 kts | 318° |
| 2026-05-07 15:37 | 42.81825 | -71.31700 | 23443 ft | 364 kts | 308° |
| 2026-05-07 15:38 | 42.83766 | -71.33890 | 23976 ft | 364 kts | 307° |
| 2026-05-07 15:38 | 42.85725 | -71.36105 | 24503 ft | 366 kts | 307° |
| 2026-05-07 15:38 | 42.87691 | -71.38324 | 25008 ft | 367 kts | 306° |
| 2026-05-07 15:38 | 42.89662 | -71.40545 | 25547 ft | 369 kts | 306° |
| 2026-05-07 15:39 | 42.91645 | -71.42780 | 25992 ft | 371 kts | 306° |
| 2026-05-07 15:39 | 42.93614 | -71.44998 | 26472 ft | 372 kts | 305° |
| 2026-05-07 15:39 | 42.95615 | -71.47252 | 26971 ft | 373 kts | 305° |
| 2026-05-07 15:39 | 42.97645 | -71.49541 | 27448 ft | 374 kts | 304° |
| 2026-05-07 15:40 | 42.99656 | -71.51814 | 27933 ft | 375 kts | 303° |
| 2026-05-07 15:40 | 43.01666 | -71.54089 | 28404 ft | 376 kts | 303° |
| 2026-05-07 15:40 | 43.03685 | -71.56378 | 28937 ft | 378 kts | 303° |
| 2026-05-07 15:40 | 43.05711 | -71.58678 | 29431 ft | 379 kts | 303° |
| 2026-05-07 15:41 | 43.07747 | -71.60987 | 29892 ft | 381 kts | 302° |
| 2026-05-07 15:41 | 43.09793 | -71.63306 | 30282 ft | 383 kts | 302° |
| 2026-05-07 15:41 | 43.11847 | -71.65637 | 30651 ft | 384 kts | 302° |
| 2026-05-07 15:41 | 43.13882 | -71.67950 | 31036 ft | 386 kts | 303° |
| 2026-05-07 15:42 | 43.15956 | -71.70313 | 31291 ft | 390 kts | 303° |
| 2026-05-07 15:42 | 43.18045 | -71.72694 | 31599 ft | 392 kts | 303° |
| 2026-05-07 15:42 | 43.20141 | -71.75081 | 32041 ft | 391 kts | 303° |
| 2026-05-07 15:42 | 43.22228 | -71.77455 | 32517 ft | 389 kts | 303° |
| 2026-05-07 15:43 | 43.24307 | -71.79822 | 32988 ft | 388 kts | 303° |
| 2026-05-07 15:43 | 43.26377 | -71.82185 | 33453 ft | 386 kts | 303° |
| 2026-05-07 15:43 | 43.28440 | -71.84548 | 33786 ft | 386 kts | 303° |
| 2026-05-07 15:43 | 43.30487 | -71.86892 | 33844 ft | 379 kts | 303° |
| 2026-05-07 15:44 | 43.34484 | -71.91466 | 33893 ft | 372 kts | 303° |
| 2026-05-07 15:44 | 43.38464 | -71.96070 | 33843 ft | 375 kts | 303° |
| 2026-05-07 15:45 | 43.42466 | -72.00688 | 33846 ft | 376 kts | 303° |
| 2026-05-07 15:45 | 43.46470 | -72.05312 | 33846 ft | 376 kts | 303° |
| 2026-05-07 15:46 | 43.52474 | -72.12248 | 33850 ft | 376 kts | 303° |
| 2026-05-07 15:47 | 43.56479 | -72.16887 | 33848 ft | 376 kts | 303° |
| 2026-05-07 15:47 | 43.60481 | -72.21541 | 33906 ft | 378 kts | 304° |
| 2026-05-07 15:48 | 43.64508 | -72.26236 | 33887 ft | 380 kts | 304° |
| 2026-05-07 15:48 | 43.68563 | -72.30954 | 33871 ft | 382 kts | 304° |
| 2026-05-07 15:49 | 43.72630 | -72.35693 | 33866 ft | 383 kts | 304° |
| 2026-05-07 15:49 | 43.76701 | -72.40456 | 33868 ft | 384 kts | 304° |
| 2026-05-07 15:50 | 43.80774 | -72.45231 | 33874 ft | 384 kts | 304° |
| 2026-05-07 15:50 | 43.84848 | -72.50010 | 33918 ft | 385 kts | 305° |
| 2026-05-07 15:51 | 43.88932 | -72.54823 | 33876 ft | 386 kts | 305° |
| 2026-05-07 15:51 | 43.92999 | -72.59616 | 33874 ft | 387 kts | 305° |
| 2026-05-07 15:52 | 43.97107 | -72.64455 | 33878 ft | 388 kts | 305° |
| 2026-05-07 15:52 | 44.01213 | -72.69306 | 33878 ft | 387 kts | 305° |
| 2026-05-07 15:53 | 44.05316 | -72.74172 | 33920 ft | 388 kts | 305° |
| 2026-05-07 15:53 | 44.09437 | -72.79075 | 33903 ft | 392 kts | 306° |
| 2026-05-07 15:54 | 44.13592 | -72.84019 | 33883 ft | 394 kts | 306° |
| 2026-05-07 15:54 | 44.17767 | -72.88978 | 33873 ft | 394 kts | 306° |
| 2026-05-07 15:55 | 44.21940 | -72.93956 | 33879 ft | 395 kts | 306° |
| 2026-05-07 15:55 | 44.26114 | -72.98953 | 33881 ft | 396 kts | 306° |
| 2026-05-07 15:56 | 44.30295 | -73.03966 | 33924 ft | 396 kts | 306° |
| 2026-05-07 15:56 | 44.34477 | -73.09004 | 33897 ft | 401 kts | 307° |
| 2026-05-07 15:57 | 44.38770 | -73.14197 | 33889 ft | 412 kts | 307° |
| 2026-05-07 15:57 | 44.43125 | -73.19431 | 33888 ft | 414 kts | 308° |
| 2026-05-07 15:57 | 44.45302 | -73.22046 | 33161 ft | 411 kts | 307° |
| 2026-05-07 15:58 | 44.47477 | -73.24671 | 31679 ft | 413 kts | 307° |
| 2026-05-07 15:58 | 44.49637 | -73.27276 | 30687 ft | 406 kts | 307° |
| 2026-05-07 15:58 | 44.51755 | -73.29822 | 29665 ft | 398 kts | 307° |
| 2026-05-07 15:58 | 44.53819 | -73.32306 | 29029 ft | 380 kts | 307° |
| 2026-05-07 15:59 | 44.55124 | -73.33865 | 28842 ft | 366 kts | 307° |
| 2026-05-07 15:59 | 44.57044 | -73.36167 | 28371 ft | 353 kts | 306° |
| 2026-05-07 15:59 | 44.58888 | -73.38417 | 27944 ft | 349 kts | 306° |
| 2026-05-07 15:59 | 44.60710 | -73.40659 | 27541 ft | 347 kts | 306° |
| 2026-05-07 16:00 | 44.62490 | -73.42853 | 27140 ft | 345 kts | 306° |
| 2026-05-07 16:00 | 44.64288 | -73.45064 | 26752 ft | 342 kts | 306° |
| 2026-05-07 16:00 | 44.66075 | -73.47253 | 26365 ft | 340 kts | 306° |
| 2026-05-07 16:00 | 44.67866 | -73.49414 | 25976 ft | 341 kts | 309° |
| 2026-05-07 16:01 | 44.69912 | -73.51225 | 25536 ft | 356 kts | 321° |
| 2026-05-07 16:01 | 44.72311 | -73.52417 | 25087 ft | 376 kts | 335° |
| 2026-05-07 16:01 | 44.74955 | -73.52886 | 24602 ft | 387 kts | 344° |
| 2026-05-07 16:01 | 44.77647 | -73.53189 | 23978 ft | 392 kts | 344° |
| 2026-05-07 16:02 | 44.80393 | -73.53506 | 23258 ft | 393 kts | 345° |
| 2026-05-07 16:02 | 44.83078 | -73.53803 | 22779 ft | 381 kts | 345° |
| 2026-05-07 16:02 | 44.85684 | -73.54092 | 22316 ft | 370 kts | 344° |
| 2026-05-07 16:02 | 44.88223 | -73.54375 | 21866 ft | 361 kts | 345° |
| 2026-05-07 16:03 | 44.90700 | -73.54647 | 21411 ft | 353 kts | 345° |
| 2026-05-07 16:03 | 44.93126 | -73.54911 | 20976 ft | 348 kts | 344° |
| 2026-05-07 16:03 | 44.95531 | -73.55182 | 20523 ft | 347 kts | 345° |
| 2026-05-07 16:03 | 44.97932 | -73.55456 | 20111 ft | 346 kts | 345° |
| 2026-05-07 16:04 | 45.00334 | -73.55729 | 19635 ft | 346 kts | 345° |
| 2026-05-07 16:04 | 45.02739 | -73.56001 | 19181 ft | 347 kts | 346° |
| 2026-05-07 16:04 | 45.05144 | -73.56269 | 18725 ft | 347 kts | 346° |
| 2026-05-07 16:04 | 45.07550 | -73.56534 | 18274 ft | 347 kts | 346° |
| 2026-05-07 16:05 | 45.09942 | -73.56793 | 17948 ft | 342 kts | 347° |
| 2026-05-07 16:05 | 45.12292 | -73.57048 | 17531 ft | 336 kts | 347° |
| 2026-05-07 16:05 | 45.14620 | -73.57306 | 17096 ft | 334 kts | 347° |
| 2026-05-07 16:05 | 45.16930 | -73.57561 | 16656 ft | 331 kts | 347° |
| 2026-05-07 16:06 | 45.19228 | -73.57814 | 16223 ft | 331 kts | 348° |
| 2026-05-07 16:06 | 45.21515 | -73.58065 | 15788 ft | 329 kts | 348° |
| 2026-05-07 16:06 | 45.23787 | -73.58316 | 15365 ft | 326 kts | 348° |
| 2026-05-07 16:06 | 45.26047 | -73.58571 | 14944 ft | 325 kts | 349° |
| 2026-05-07 16:07 | 45.28294 | -73.58819 | 14520 ft | 323 kts | 349° |
| 2026-05-07 16:07 | 45.30499 | -73.59239 | 14092 ft | 317 kts | 343° |
| 2026-05-07 16:07 | 45.32661 | -73.59823 | 13682 ft | 315 kts | 343° |
| 2026-05-07 16:07 | 45.34798 | -73.60399 | 13246 ft | 309 kts | 344° |
| 2026-05-07 16:08 | 45.36901 | -73.60961 | 12844 ft | 306 kts | 343° |
| 2026-05-07 16:08 | 45.38981 | -73.61521 | 12464 ft | 303 kts | 344° |
| 2026-05-07 16:08 | 45.41043 | -73.62081 | 12059 ft | 300 kts | 344° |
| 2026-05-07 16:08 | 45.43086 | -73.62637 | 11672 ft | 298 kts | 345° |
| 2026-05-07 16:09 | 45.45114 | -73.63188 | 11291 ft | 295 kts | 345° |
| 2026-05-07 16:09 | 45.47128 | -73.63732 | 10911 ft | 294 kts | 345° |
| 2026-05-07 16:09 | 45.49127 | -73.64271 | 10530 ft | 292 kts | 345° |
| 2026-05-07 16:09 | 45.51116 | -73.64810 | 10190 ft | 289 kts | 345° |
| 2026-05-07 16:10 | 45.53058 | -73.65341 | 9949 ft | 282 kts | 345° |
| 2026-05-07 16:10 | 45.54932 | -73.65850 | 9812 ft | 277 kts | 345° |
| 2026-05-07 16:10 | 45.56837 | -73.66370 | 9374 ft | 280 kts | 345° |
| 2026-05-07 16:10 | 45.58743 | -73.66890 | 9031 ft | 276 kts | 345° |
| 2026-05-07 16:11 | 45.60630 | -73.67404 | 8397 ft | 274 kts | 345° |
| 2026-05-07 16:11 | 45.62491 | -73.67904 | 7822 ft | 271 kts | 345° |
| 2026-05-07 16:11 | 45.64326 | -73.68397 | 7314 ft | 266 kts | 345° |
| 2026-05-07 16:11 | 45.66162 | -73.68891 | 6807 ft | 263 kts | 345° |
| 2026-05-07 16:12 | 45.67937 | -73.69373 | 6324 ft | 262 kts | 345° |
| 2026-05-07 16:12 | 45.69741 | -73.69870 | 5927 ft | 264 kts | 345° |
| 2026-05-07 16:12 | 45.71513 | -73.70362 | 5858 ft | 254 kts | 345° |
| 2026-05-07 16:12 | 45.73220 | -73.70829 | 5786 ft | 245 kts | 344° |
| 2026-05-07 16:13 | 45.74861 | -73.71284 | 5690 ft | 235 kts | 343° |
| 2026-05-07 16:13 | 45.76369 | -73.71984 | 5597 ft | 219 kts | 328° |
| 2026-05-07 16:13 | 45.77597 | -73.73218 | 5174 ft | 218 kts | 311° |
| 2026-05-07 16:13 | 45.78687 | -73.74796 | 4566 ft | 225 kts | 311° |
| 2026-05-07 16:14 | 45.79782 | -73.76355 | 4222 ft | 217 kts | 311° |
| 2026-05-07 16:14 | 45.80653 | -73.78039 | 3869 ft | 208 kts | 291° |
| 2026-05-07 16:14 | 45.80971 | -73.80005 | 3681 ft | 199 kts | 270° |
| 2026-05-07 16:14 | 45.80753 | -73.81902 | 3501 ft | 191 kts | 251° |
| 2026-05-07 16:15 | 45.80078 | -73.83516 | 3283 ft | 190 kts | 231° |
| 2026-05-07 16:15 | 45.79162 | -73.84839 | 3061 ft | 182 kts | 229° |
| 2026-05-07 16:15 | 45.78302 | -73.86069 | 2808 ft | 167 kts | 230° |
| 2026-05-07 16:15 | 45.77516 | -73.87193 | 2572 ft | 153 kts | 230° |
| 2026-05-07 16:16 | 45.76797 | -73.88223 | 2379 ft | 140 kts | 230° |
| 2026-05-07 16:16 | 45.76139 | -73.89168 | 2186 ft | 130 kts | 230° |
| 2026-05-07 16:16 | 45.75512 | -73.90067 | 2023 ft | 126 kts | 230° |
| 2026-05-07 16:16 | 45.74886 | -73.90934 | 1874 ft | 124 kts | 230° |
| 2026-05-07 16:17 | 45.74280 | -73.91786 | 1735 ft | 121 kts | 231° |
| 2026-05-07 16:17 | 45.73688 | -73.92640 | 1589 ft | 120 kts | 230° |
| 2026-05-07 16:17 | 45.73102 | -73.93481 | 1443 ft | 119 kts | 232° |
| 2026-05-07 16:17 | 45.72514 | -73.94320 | 1216 ft | 120 kts | 230° |
| 2026-05-07 16:18 | 45.71917 | -73.95159 | 975 ft | 120 kts | 232° |
| 2026-05-07 16:18 | 45.71332 | -73.96031 | 829 ft | 123 kts | 230° |
| 2026-05-07 16:18 | 45.70729 | -73.96889 | 666 ft | 121 kts | 230° |
| 2026-05-07 16:18 | 45.70124 | -73.97775 | 514 ft | 124 kts | 229° |
| 2026-05-07 16:19 | 45.69519 | -73.98643 | 338 ft | 123 kts | 229° |
| 2026-05-07 16:19 | 45.68935 | -73.99471 | 259 ft | 104 kts | 228° |
| 2026-05-07 16:19 | 45.68540 | -74.00042 | 263 ft | 56 kts | 225° |
| 2026-05-07 16:19 | 45.68357 | -74.00305 | 262 ft | 31 kts | 225° |
| 2026-05-07 16:20 | 45.68217 | -74.00533 | 263 ft | 31 kts | 237° |
| 2026-05-07 16:20 | 45.68135 | -74.00795 | 267 ft | 28 kts | 249° |
| 2026-05-07 16:20 | 45.68070 | -74.01061 | 267 ft | 29 kts | 251° |
| 2026-05-07 16:20 | 45.68032 | -74.01279 | 267 ft | 21 kts | 274° |
| 2026-05-07 16:21 | 45.68104 | -74.01462 | 268 ft | 21 kts | 316° |
| 2026-05-07 16:21 | 45.68116 | -74.01567 | 268 ft | 12 kts | 226° |
| 2026-05-07 16:21 | 45.68049 | -74.01660 | 268 ft | 15 kts | 224° |
| 2026-05-07 16:21 | 45.67966 | -74.01778 | 269 ft | 18 kts | 225° |
| 2026-05-07 16:22 | 45.67874 | -74.01911 | 270 ft | 20 kts | 225° |
| 2026-05-07 16:22 | 45.67768 | -74.02061 | 270 ft | 22 kts | 222° |
| 2026-05-07 16:22 | 45.67694 | -74.02166 | 273 ft | 7 kts | 234° |
| 2026-05-07 16:22 | 45.67637 | -74.02246 | 271 ft | 19 kts | 225° |
| 2026-05-07 16:23 | 45.67530 | -74.02399 | 272 ft | 23 kts | 224° |
| 2026-05-07 16:23 | 45.67455 | -74.02528 | 273 ft | 10 kts | 274° |
| 2026-05-07 16:23 | 45.67550 | -74.02602 | 272 ft | 22 kts | 337° |
| 2026-05-07 16:23 | 45.67702 | -74.02734 | 272 ft | 27 kts | 316° |
| 2026-05-07 16:24 | 45.67818 | -74.02885 | 272 ft | 20 kts | 329° |
| 2026-05-07 16:24 | 45.67909 | -74.02893 | 273 ft | 10 kts | 8° |
| 2026-05-07 16:24 | 45.67931 | -74.02888 | 272 ft | 0 kts | 9° |